< Cyclone 201707 2017 Season Cyclone 201720 >
Cyclone 201719 (Alfred)
General InformationTrack Information on Google MapsDetailed Wind InformationList of All Images || ResourceGoogle EarthGE AnimationAtom FeedGeoJSON
Detalied Best Track (Time Zone = UTC)
Year Month Day Hour Lat. Long. Pressure (hPa) Wind (kt) Class Image Chart
2017 2 15 06 -16.9 137.1 1002 15 2 Image --
2017 2 15 12 -16.1 136.2 1003 15 2 Image --
2017 2 15 18 -15.8 138.0 1002 15 2 Image --
2017 2 15 21 -15.7 138.5 1002 20 2 Image --
2017 2 16 00 -15.4 139.2 1002 25 2 Image --
2017 2 16 06 -16.0 139.6 1001 25 2 Image --
2017 2 16 12 -16.2 139.5 999 30 2 Image --
2017 2 16 18 -16.5 139.2 994 35 3 Image --
2017 2 17 00 -16.7 138.5 996 30 2 Image --
2017 2 17 06 -16.7 138.2 999 25 2 Image --
2017 2 17 12 -16.9 137.7 1002 25 2 Image --
2017 2 17 18 -16.4 136.8 1002 25 2 Image --
2017 2 18 00 -16.3 136.2 1004 20 2 Image --
2017 2 18 06 -15.8 136.0 1001 20 2 Image --
2017 2 18 12 -15.3 136.5 1003 25 2 Image --
2017 2 18 18 -15.2 136.3 1001 25 2 Image --
2017 2 19 00 -14.9 136.0 1000 30 2 Image --
2017 2 19 03 -14.7 136.0 998 30 2 Image --
2017 2 19 06 -14.5 136.1 996 35 3 Image --
2017 2 19 09 -14.3 136.3 996 35 3 Image --
2017 2 19 12 -14.5 136.6 995 40 3 Image --
2017 2 19 15 -14.6 136.8 995 40 3 Image --
2017 2 19 18 -14.8 136.9 993 40 3 Image --
2017 2 19 21 -15.1 137.0 990 45 3 Image --
2017 2 19 22 -15.1 137.0 987 50 4 Image --
2017 2 19 23 -15.1 137.1 987 50 4 Image --
2017 2 20 00 -15.2 137.1 987 50 4 Image --
2017 2 20 01 -15.3 137.2 987 50 4 Image --
2017 2 20 02 -15.4 137.2 987 50 4 Image --
2017 2 20 03 -15.5 137.3 987 50 4 Image --
2017 2 20 06 -15.6 137.4 987 50 4 Image --
2017 2 20 09 -15.5 137.6 991 40 3 Image --
2017 2 20 12 -15.4 137.6 996 35 3 Image --
2017 2 20 15 -15.4 137.7 998 30 2 Image --
2017 2 20 18 -15.4 137.7 999 30 2 Image --
2017 2 20 21 -15.4 137.8 1002 25 2 Image --
2017 2 21 00 -15.9 138.0 1003 30 2 Image --
2017 2 21 06 -16.7 137.9 1004 30 2 Image --
2017 2 21 12 -16.6 137.6 1004 30 2 Image --
2017 2 21 18 -16.2 137.7 1004 30 2 Image --
2017 2 22 00 -16.2 137.9 1006 25 2 Image --
2017 2 22 06 -16.7 138.3 1005 25 2 Image --
2017 2 22 12 -16.9 138.2 1007 25 2 Image --
< Cyclone 201707 2017 Season Cyclone 201720 >

Help